Terminal Aerodrome Forecast
Issued by NWS Tampa Bay Area, FL

Home | Current Version | Previous Version | Text Only | Print | Product List | Glossary Off
Versions: 1 2 3 4 5 6 7 8 9 10 11 12 13 14 15 16 17 18 19 20

000
FTUS42 KTBW 270335 AAA
TAFFMY
TAF AMD
KFMY 270335Z 2704/2724 20004KT P6SM FEW025
     FM271000 20006KT 6SM SHRA SCT025 BKN040 OVC100
      TEMPO 2711/2714 25015G30KT 5SM +TSRA BKN020CB OVC040
     FM271400 21012KT P6SM SCT020 BKN040
     FM271900 24018G25KT P6SM SHRA SCT020 BKN040
     FM272300 28015G23KT P6SM SCT025 BKN040=

USA.gov is the U.S. government's official web portal to all federal, state and local government web resources and services.